Time;durP1;ratioP1;P1;durP2;ratioP2;P2;SDS_P1;SDS_P2;PMS_P1;PMS_P2;Temp;Humidity;BMP_temperature;BMP_pressure;BME280_temperature;BME280_humidity;BME280_pressure;Samples;Min_cycle;Max_cycle;Signal;HPM_P1;HPM_P2
2023/07/02 00:02:24;;;;;;;;;;;19.80;72.20;;;-151.14;100.00;62537.16;5089432;28;19926;-84
2023/07/02 00:04:52;;;;;;;;;;;19.80;72.20;;;-151.14;100.00;62537.16;5091681;28;20208;-84
2023/07/02 00:07:20;;;;;;;;;;;19.80;72.20;;;-151.14;100.00;62537.16;5091854;28;20142;-84
2023/07/02 00:09:47;;;;;;;;;;;19.80;72.20;;;-151.14;100.00;62537.16;5091699;28;19920;-84
2023/07/02 00:12:15;;;;;;;;;;;19.80;72.20;;;-151.14;100.00;62537.16;5107771;28;19924;-85
2023/07/02 00:14:44;;;;;;;;;;;19.80;72.10;;;-151.14;100.00;62537.16;5091580;28;19924;-84
2023/07/02 00:17:13;;;;;;;;;;;19.80;72.10;;;-151.14;100.00;62537.16;5091378;28;20128;-84
2023/07/02 00:19:41;;;;;;;;;;;19.80;72.00;;;-151.14;100.00;62537.16;5091540;28;19927;-84
2023/07/02 00:22:09;;;;;;;;;;;19.80;72.10;;;-151.14;100.00;62537.16;5091924;28;19920;-84
2023/07/02 00:24:37;;;;;;;;;;;19.70;72.00;;;-151.14;100.00;62537.16;5091042;28;19926;-84
2023/07/02 00:27:05;;;;;;;;;;;19.70;72.00;;;-151.14;100.00;62537.16;5108222;28;20356;-84
2023/07/02 00:29:33;;;;;;;;;;;19.70;72.10;;;-151.14;100.00;62537.16;5091239;28;19926;-84
2023/07/02 00:32:03;;;;;;;;;;;19.70;72.10;;;-151.14;100.00;62537.16;5090765;28;19920;-84
2023/07/02 00:34:31;;;;;;;;;;;19.70;72.10;;;-151.14;100.00;62537.16;5074599;28;19934;-84
2023/07/02 00:36:58;;;;;;;;;;;19.70;72.10;;;-151.14;100.00;62537.16;5092175;28;19927;-84
2023/07/02 00:39:27;;;;;;;;;;;19.70;72.10;;;-151.14;100.00;62537.16;5091253;28;19920;-84
2023/07/02 00:41:55;;;;;;;;;;;19.70;72.00;;;-151.14;100.00;62537.16;5090757;28;19920;-84
2023/07/02 00:44:24;;;;;;;;;;;19.70;72.00;;;-151.14;100.00;62537.16;5092067;28;19921;-84
2023/07/02 00:46:51;;;;;;;;;;;19.70;71.90;;;-151.14;100.00;62537.16;5091022;28;19920;-84
2023/07/02 00:49:21;;;;;;;;;;;19.70;71.90;;;-151.14;100.00;62537.16;5092062;28;19920;-84
2023/07/02 00:51:49;;;;;;;;;;;19.70;71.80;;;-151.14;100.00;62537.16;5090542;28;20238;-84
2023/07/02 00:54:17;;;;;;;;;;;19.70;71.60;;;-151.14;100.00;62537.16;5074009;28;19927;-84
2023/07/02 00:56:45;;;;;;;;;;;19.70;71.70;;;-151.14;100.00;62537.16;5107735;28;19920;-83
2023/07/02 00:59:13;;;;;;;;;;;19.70;71.70;;;-151.14;100.00;62537.16;5090913;28;19927;-84
2023/07/02 01:01:41;;;;;;;;;;;19.70;71.80;;;-151.14;100.00;62537.16;5073519;28;20115;-84
2023/07/02 01:04:09;;;;;;;;;;;19.70;71.80;;;-151.14;100.00;62537.16;5073836;28;19926;-84
2023/07/02 01:06:40;;;;;;;;;;;19.70;71.90;;;-151.14;100.00;62537.16;5090601;28;19926;-84
2023/07/02 01:09:08;;;;;;;;;;;19.70;72.00;;;-151.14;100.00;62537.16;5084845;28;19920;-83
2023/07/02 01:11:39;;;;;;;;;;;19.70;72.00;;;-151.14;100.00;62537.16;5090272;28;20136;-84
2023/07/02 01:14:09;;;;;;;;;;;19.70;72.00;;;-151.14;100.00;62537.16;5107379;28;19920;-84
2023/07/02 01:16:37;;;;;;;;;;;19.60;71.90;;;-151.14;100.00;62537.16;5090614;28;19920;-84
2023/07/02 01:19:05;;;;;;;;;;;19.60;71.90;;;-151.14;100.00;62537.16;5073783;28;19942;-84
2023/07/02 01:21:35;;;;;;;;;;;19.70;72.10;;;-151.14;100.00;62537.16;5073296;28;19927;-84
2023/07/02 01:24:03;;;;;;;;;;;19.70;72.10;;;-151.14;100.00;62537.16;5091431;28;19920;-84
2023/07/02 01:26:33;;;;;;;;;;;19.70;72.10;;;-151.14;100.00;62537.16;5090172;28;19926;-84
2023/07/02 01:29:13;;;;;;;;;;;19.70;72.10;;;-151.14;100.00;62537.16;5073627;28;19926;-84
2023/07/02 01:31:41;;;;;;;;;;;19.70;72.10;;;-151.14;100.00;62537.16;5090991;28;20238;-84
2023/07/02 01:34:09;;;;;;;;;;;19.70;72.10;;;-151.14;100.00;62537.16;5073513;28;20115;-84
2023/07/02 01:36:39;;;;;;;;;;;19.70;72.10;;;-151.14;100.00;62537.16;5090130;28;19920;-84
2023/07/02 01:39:07;;;;;;;;;;;19.70;72.20;;;-151.14;100.00;62537.16;5107261;28;19943;-84
2023/07/02 01:41:38;;;;;;;;;;;19.70;72.10;;;-151.14;100.00;62537.16;5089589;28;19926;-84
2023/07/02 01:44:06;;;;;;;;;;;19.70;72.10;;;-151.14;100.00;62537.16;5090121;28;19920;-84
2023/07/02 01:46:34;;;;;;;;;;;19.60;72.00;;;-151.14;100.00;62537.16;5073191;28;19920;-84
2023/07/02 01:49:02;;;;;;;;;;;19.60;72.10;;;-151.14;100.00;62537.16;5073342;28;20105;-84
2023/07/02 01:51:31;;;;;;;;;;;19.60;72.10;;;-151.14;100.00;62537.16;5089566;28;19926;-84
2023/07/02 01:54:00;;;;;;;;;;;19.60;72.20;;;-151.14;100.00;62537.16;5089965;28;20212;-84
2023/07/02 01:56:28;;;;;;;;;;;19.60;72.20;;;-151.14;100.00;62537.16;5091545;28;19927;-84
2023/07/02 01:58:56;;;;;;;;;;;19.60;73.00;;;-151.14;100.00;62537.16;5106859;28;19920;-83
2023/07/02 02:01:24;;;;;;;;;;;19.60;72.00;;;-151.14;100.00;62537.16;5072381;28;19927;-84
2023/07/02 02:03:51;;;;;;;;;;;19.60;72.20;;;-151.14;100.00;62537.16;5089647;28;19927;-83
2023/07/02 02:06:19;;;;;;;;;;;19.60;72.20;;;-151.14;100.00;62537.16;5089885;28;19921;-83
2023/07/02 02:08:47;;;;;;;;;;;19.60;72.10;;;-151.14;100.00;62537.16;5106509;28;19928;-83
2023/07/02 02:11:16;;;;;;;;;;;19.60;72.00;;;-151.14;100.00;62537.16;5090290;28;19920;-84
2023/07/02 02:13:44;;;;;;;;;;;19.60;72.00;;;-151.14;100.00;62537.16;5089766;28;19933;-83
2023/07/02 02:16:12;;;;;;;;;;;19.60;72.00;;;-151.14;100.00;62537.16;5072854;28;20115;-83
2023/07/02 02:18:40;;;;;;;;;;;19.60;72.10;;;-151.14;100.00;62537.16;5090759;28;19920;-83
2023/07/02 02:21:08;;;;;;;;;;;19.60;72.10;;;-151.14;100.00;62537.16;5090344;28;19934;-84
2023/07/02 02:23:36;;;;;;;;;;;19.60;72.20;;;-151.14;100.00;62537.16;5076040;28;19920;-84
2023/07/02 02:26:04;;;;;;;;;;;19.50;72.30;;;-151.14;100.00;62537.16;5094159;28;19982;-84
2023/07/02 02:28:33;;;;;;;;;;;19.50;72.40;;;-151.14;100.00;62537.16;5094301;28;19927;-83
2023/07/02 02:31:02;;;;;;;;;;;19.50;72.50;;;-151.14;100.00;62537.16;5093930;28;20223;-84
2023/07/02 02:33:31;;;;;;;;;;;19.60;72.30;;;-151.14;100.00;62537.16;5092496;28;19920;-83
2023/07/02 02:35:59;;;;;;;;;;;19.60;72.30;;;-151.14;100.00;62537.16;5076123;28;19927;-83
2023/07/02 02:38:28;;;;;;;;;;;19.60;72.20;;;-151.14;100.00;62537.16;5092276;28;19920;-84
2023/07/02 02:40:56;;;;;;;;;;;19.60;72.20;;;-151.14;100.00;62537.16;5092007;28;19920;-83
2023/07/02 02:43:24;;;;;;;;;;;19.50;72.30;;;-151.14;100.00;62537.16;5075469;28;19920;-83
2023/07/02 02:45:54;;;;;;;;;;;19.60;72.30;;;-151.14;100.00;62537.16;5075832;28;19926;-83
2023/07/02 02:48:22;;;;;;;;;;;19.60;72.40;;;-151.14;100.00;62537.16;5076122;28;19926;-84
2023/07/02 02:50:50;;;;;;;;;;;19.60;72.40;;;-151.14;100.00;62537.16;5092719;28;19919;-84
2023/07/02 02:53:18;;;;;;;;;;;19.60;72.50;;;-151.14;100.00;62537.16;5093159;28;19926;-83
2023/07/02 02:55:46;;;;;;;;;;;19.50;72.40;;;-151.14;100.00;62537.16;5092436;28;19920;-83
2023/07/02 02:58:14;;;;;;;;;;;19.60;72.30;;;-151.14;100.00;62537.16;5093923;28;19942;-83
2023/07/02 03:00:45;;;;;;;;;;;19.60;72.40;;;-151.14;100.00;62537.16;5092372;28;19934;-83
2023/07/02 03:03:15;;;;;;;;;;;19.60;72.40;;;-151.14;100.00;62537.16;5075111;28;19924;-84
2023/07/02 03:05:44;;;;;;;;;;;19.60;72.50;;;-151.14;100.00;62537.16;5092170;28;19920;-83
2023/07/02 03:08:12;;;;;;;;;;;19.60;72.50;;;-151.14;100.00;62537.16;5093731;28;19926;-83
2023/07/02 03:10:39;;;;;;;;;;;19.50;72.40;;;-151.14;100.00;62537.16;5092298;28;19920;-83
2023/07/02 03:13:07;;;;;;;;;;;19.60;72.40;;;-151.14;100.00;62537.16;5074964;28;19926;-83
2023/07/02 03:15:35;;;;;;;;;;;19.60;72.40;;;-151.14;100.00;62537.16;5093382;28;19920;-83
2023/07/02 03:18:03;;;;;;;;;;;19.60;72.40;;;-151.14;100.00;62537.16;5093543;28;19920;-83
2023/07/02 03:20:32;;;;;;;;;;;19.50;72.40;;;-151.14;100.00;62537.16;5092147;28;19921;-84
2023/07/02 03:23:00;;;;;;;;;;;19.50;72.40;;;-151.14;100.00;62537.16;5092905;28;19920;-83
2023/07/02 03:25:28;;;;;;;;;;;19.50;72.70;;;-151.14;100.00;62537.16;5091705;28;19927;-83
2023/07/02 03:27:56;;;;;;;;;;;19.40;72.60;;;-151.14;100.00;62537.16;5093330;28;20204;-83
2023/07/02 03:30:24;;;;;;;;;;;19.40;72.80;;;-151.14;100.00;62537.16;5075110;28;20216;-83
2023/07/02 03:32:52;;;;;;;;;;;19.40;72.80;;;-151.14;100.00;62537.16;5091246;28;19920;-83
2023/07/02 03:35:19;;;;;;;;;;;19.40;72.80;;;-151.14;100.00;62537.16;5091795;28;20205;-83
2023/07/02 03:37:49;;;;;;;;;;;19.40;72.70;;;-151.14;100.00;62537.16;5093286;28;19926;-83
2023/07/02 03:40:17;;;;;;;;;;;19.50;73.00;;;-151.14;100.00;62537.16;5093037;28;19926;-83
2023/07/02 03:42:45;;;;;;;;;;;19.40;72.80;;;-151.14;100.00;62537.16;5092643;28;19942;-82
2023/07/02 03:45:12;;;;;;;;;;;19.40;72.90;;;-151.14;100.00;62537.16;5092773;28;19920;-83
2023/07/02 03:47:40;;;;;;;;;;;19.40;73.00;;;-151.14;100.00;62537.16;5092085;28;20209;-83
2023/07/02 03:50:09;;;;;;;;;;;19.50;73.00;;;-151.14;100.00;62537.16;5091680;28;19927;-83
2023/07/02 03:52:37;;;;;;;;;;;19.50;73.10;;;-151.14;100.00;62537.16;5092407;28;19920;-82
2023/07/02 03:55:08;;;;;;;;;;;19.50;73.00;;;-151.14;100.00;62537.16;5074730;28;19927;-83
2023/07/02 03:57:36;;;;;;;;;;;19.50;73.10;;;-151.14;100.00;62537.16;5091776;28;19947;-83
2023/07/02 04:00:05;;;;;;;;;;;19.50;73.10;;;-151.14;100.00;62537.16;5074820;28;19920;-83
2023/07/02 04:02:42;;;;;;;;;;;19.60;73.10;;;-151.14;100.00;62537.16;5071004;28;19921;-83
2023/07/02 04:05:10;;;;;;;;;;;19.60;73.30;;;-151.14;100.00;62537.16;5071394;28;19921;-83
2023/07/02 04:07:38;;;;;;;;;;;19.60;73.50;;;-151.14;100.00;62537.16;5071476;28;20208;-83
2023/07/02 04:10:09;;;;;;;;;;;19.60;73.40;;;-151.14;100.00;62537.16;5072453;28;19921;-83
2023/07/02 04:12:37;;;;;;;;;;;19.60;73.60;;;-151.14;100.00;62537.16;5071849;28;19947;-83
2023/07/02 04:15:05;;;;;;;;;;;19.70;74.60;;;-151.14;100.00;62537.16;5054583;28;19926;-83
2023/07/02 04:17:34;;;;;;;;;;;19.60;74.00;;;-151.14;100.00;62537.16;5072056;28;19920;-83
2023/07/02 04:20:03;;;;;;;;;;;19.60;74.10;;;-151.14;100.00;62537.16;5091181;28;19920;-83
2023/07/02 04:22:31;;;;;;;;;;;19.60;74.10;;;-151.14;100.00;62537.16;5091853;28;19927;-83
2023/07/02 04:24:59;;;;;;;;;;;19.60;74.10;;;-151.14;100.00;62537.16;5092463;28;19920;-83
2023/07/02 04:27:28;;;;;;;;;;;19.60;74.30;;;-151.14;100.00;62537.16;5092153;28;19919;-83
2023/07/02 04:29:56;;;;;;;;;;;19.60;74.30;;;-151.14;100.00;62537.16;5074388;28;19927;-83
2023/07/02 04:32:24;;;;;;;;;;;19.70;74.40;;;-151.14;100.00;62537.16;5090627;28;19920;-83
2023/07/02 04:34:52;;;;;;;;;;;19.60;74.40;;;-151.14;100.00;62537.16;5091036;28;19926;-83
2023/07/02 04:37:21;;;;;;;;;;;19.70;74.60;;;-151.14;100.00;62537.16;5092112;28;20089;-83
2023/07/02 04:39:49;;;;;;;;;;;19.70;74.40;;;-151.14;100.00;62537.16;5091150;28;20124;-82
2023/07/02 04:42:17;;;;;;;;;;;19.70;74.90;;;-151.14;100.00;62537.16;5090210;28;19920;-83
2023/07/02 04:44:46;;;;;;;;;;;19.60;74.60;;;-151.14;100.00;62537.16;5091284;28;19920;-83
2023/07/02 04:47:14;;;;;;;;;;;19.70;75.20;;;-151.14;100.00;62537.16;5091820;28;20226;-83
2023/07/02 04:49:42;;;;;;;;;;;19.70;75.20;;;-151.14;100.00;62537.16;5092120;28;19921;-82
2023/07/02 04:52:10;;;;;;;;;;;19.70;75.70;;;-151.14;100.00;62537.16;5090320;28;19920;-83
2023/07/02 04:54:38;;;;;;;;;;;19.60;75.50;;;-151.14;100.00;62537.16;5091025;28;19927;-83
2023/07/02 04:57:06;;;;;;;;;;;19.60;75.50;;;-151.14;100.00;62537.16;5090409;28;19920;-83
2023/07/02 04:59:34;;;;;;;;;;;19.60;75.80;;;-151.14;100.00;62537.16;5107686;28;19920;-83
2023/07/02 05:02:03;;;;;;;;;;;19.60;75.80;;;-151.14;100.00;62537.16;5089721;28;19934;-83
2023/07/02 05:04:31;;;;;;;;;;;19.60;76.40;;;-151.14;100.00;62537.16;5091900;28;19920;-83
2023/07/02 05:07:00;;;;;;;;;;;19.50;76.40;;;-151.14;100.00;62537.16;5091721;28;19920;-83
2023/07/02 05:09:28;;;;;;;;;;;19.50;76.30;;;-151.14;100.00;62537.16;5073908;28;19920;-83
2023/07/02 05:11:55;;;;;;;;;;;19.50;76.40;;;-151.14;100.00;62537.16;5089796;28;20148;-83
2023/07/02 05:14:23;;;;;;;;;;;19.50;76.80;;;-151.14;100.00;62537.16;5073694;28;19920;-83
2023/07/02 05:16:51;;;;;;;;;;;19.50;76.60;;;-151.14;100.00;62537.16;5091443;28;19920;-83
2023/07/02 05:19:20;;;;;;;;;;;19.50;76.60;;;-151.14;100.00;62537.16;5074056;28;19921;-83
2023/07/02 05:21:48;;;;;;;;;;;19.50;76.40;;;-151.14;100.00;62537.16;5073065;28;19920;-83
2023/07/02 05:24:16;;;;;;;;;;;19.50;76.60;;;-151.14;100.00;62537.16;5090426;28;19920;-83
2023/07/02 05:26:44;;;;;;;;;;;19.60;76.50;;;-151.14;100.00;62537.16;5090129;28;19921;-83
2023/07/02 05:29:13;;;;;;;;;;;19.60;76.50;;;-151.14;100.00;62537.16;5090432;28;19921;-83
2023/07/02 05:31:41;;;;;;;;;;;19.50;77.00;;;-151.14;100.00;62537.16;5089699;28;19920;-83
2023/07/02 05:34:09;;;;;;;;;;;19.60;77.00;;;-151.14;100.00;62537.16;5071049;28;19921;-83
2023/07/02 05:36:38;;;;;;;;;;;19.60;77.10;;;-151.14;100.00;62537.16;5070924;28;20107;-83
2023/07/02 05:39:06;;;;;;;;;;;19.60;77.10;;;-151.14;100.00;62537.16;5070145;28;19924;-83
2023/07/02 05:41:34;;;;;;;;;;;19.50;77.00;;;-151.14;100.00;62537.16;5069188;28;20098;-83
2023/07/02 05:44:02;;;;;;;;;;;19.50;77.10;;;-151.14;100.00;62537.16;5069985;28;20205;-83
2023/07/02 05:46:30;;;;;;;;;;;19.60;76.70;;;-151.14;100.00;62537.16;5070810;28;19927;-83
2023/07/02 05:48:59;;;;;;;;;;;19.60;76.70;;;-151.14;100.00;62537.16;5069799;28;19920;-83
2023/07/02 05:51:27;;;;;;;;;;;19.60;76.80;;;-151.14;100.00;62537.16;5070506;28;20226;-83
2023/07/02 05:53:56;;;;;;;;;;;19.70;76.70;;;-151.14;100.00;62537.16;5069771;28;19927;-83
2023/07/02 05:56:24;;;;;;;;;;;19.70;77.20;;;-151.14;100.00;62537.16;5073011;28;19926;-82
2023/07/02 05:58:52;;;;;;;;;;;19.80;76.40;;;-151.14;100.00;62537.16;5073376;28;20208;-83
2023/07/02 06:01:20;;;;;;;;;;;19.80;75.90;;;-151.14;100.00;62537.16;5072791;28;20205;-83
2023/07/02 06:03:50;;;;;;;;;;;19.90;75.40;;;-151.14;100.00;62537.16;5073376;28;20235;-83
2023/07/02 06:06:18;;;;;;;;;;;20.00;75.00;;;-151.14;100.00;62537.16;5073366;28;19944;-83
2023/07/02 06:08:46;;;;;;;;;;;20.10;74.90;;;-151.14;100.00;62537.16;5056527;28;19927;-83
2023/07/02 06:11:16;;;;;;;;;;;20.10;74.50;;;-151.14;100.00;62537.16;5073815;28;20097;-84
2023/07/02 06:13:43;;;;;;;;;;;20.20;74.20;;;-151.14;100.00;62537.16;5056404;28;20241;-83
2023/07/02 06:16:11;;;;;;;;;;;20.30;74.00;;;-151.14;100.00;62537.16;5073069;28;19921;-83
2023/07/02 06:18:39;;;;;;;;;;;20.30;73.50;;;-151.14;100.00;62537.16;5072999;28;19920;-84
2023/07/02 06:21:07;;;;;;;;;;;20.40;73.20;;;-151.14;100.00;62537.16;5072453;28;19926;-83
2023/07/02 06:23:41;;;;;;;;;;;20.50;73.20;;;-151.14;100.00;62537.16;5081576;28;19923;-84
2023/07/02 06:26:09;;;;;;;;;;;20.50;73.10;;;-151.14;100.00;62537.16;5093225;28;19926;-83
2023/07/02 06:28:39;;;;;;;;;;;20.50;72.80;;;-151.14;100.00;62537.16;5092780;28;19921;-83
2023/07/02 06:31:07;;;;;;;;;;;20.50;72.60;;;-151.14;100.00;62537.16;5075946;28;19926;-83
2023/07/02 06:33:35;;;;;;;;;;;20.60;72.30;;;-151.14;100.00;62537.16;5093936;28;19920;-83
2023/07/02 06:36:03;;;;;;;;;;;20.50;72.60;;;-151.14;100.00;62537.16;5092817;28;19927;-83
2023/07/02 06:38:30;;;;;;;;;;;20.50;72.40;;;-151.14;100.00;62537.16;5092781;28;19920;-83
2023/07/02 06:40:58;;;;;;;;;;;20.50;72.30;;;-151.14;100.00;62537.16;5109943;28;20208;-84
2023/07/02 06:43:26;;;;;;;;;;;20.50;72.30;;;-151.14;100.00;62537.16;5075570;28;20212;-83
2023/07/02 06:45:56;;;;;;;;;;;20.50;72.30;;;-151.14;100.00;62537.16;5109843;28;19927;-84
2023/07/02 06:48:24;;;;;;;;;;;20.50;72.30;;;-151.14;100.00;62537.16;5093711;28;19920;-83
2023/07/02 06:50:51;;;;;;;;;;;20.50;72.40;;;-151.14;100.00;62537.16;5093958;28;19927;-84
2023/07/02 06:53:19;;;;;;;;;;;20.50;72.30;;;-151.14;100.00;62537.16;5092017;28;20093;-83
2023/07/02 06:55:47;;;;;;;;;;;20.50;72.30;;;-151.14;100.00;62537.16;5092715;28;19928;-83
2023/07/02 06:58:15;;;;;;;;;;;20.50;72.40;;;-151.14;100.00;62537.16;5092535;28;19920;-83
2023/07/02 07:00:43;;;;;;;;;;;20.40;72.60;;;-151.14;100.00;62537.16;5092659;28;19927;-84
2023/07/02 07:03:12;;;;;;;;;;;20.40;72.40;;;-151.14;100.00;62537.16;5091707;28;19927;-83
2023/07/02 07:05:40;;;;;;;;;;;20.40;72.40;;;-151.14;100.00;62537.16;5072323;28;19920;-83
2023/07/02 07:08:08;;;;;;;;;;;20.40;72.60;;;-151.14;100.00;62537.16;5071460;28;19925;-83
2023/07/02 07:10:36;;;;;;;;;;;20.40;72.90;;;-151.14;100.00;62537.16;5072338;28;19927;-84
2023/07/02 07:13:04;;;;;;;;;;;20.40;72.90;;;-151.14;100.00;62537.16;5071588;28;19935;-83
2023/07/02 07:15:34;;;;;;;;;;;20.40;73.00;;;-151.14;100.00;62537.16;5072196;28;19920;-83
2023/07/02 07:18:02;;;;;;;;;;;20.40;72.90;;;-151.14;100.00;62537.16;5055493;28;20123;-83
2023/07/02 07:20:31;;;;;;;;;;;20.40;72.90;;;-151.14;100.00;62537.16;5072170;28;19943;-83
2023/07/02 07:22:59;;;;;;;;;;;20.30;73.20;;;-151.14;100.00;62537.16;5054481;28;19920;-83
2023/07/02 07:25:27;;;;;;;;;;;20.30;72.90;;;-151.14;100.00;62537.16;5073107;28;20440;-83
2023/07/02 07:27:55;;;;;;;;;;;20.40;73.00;;;-151.14;100.00;62537.16;5073018;28;19927;-83
2023/07/02 07:30:23;;;;;;;;;;;20.30;72.90;;;-151.14;100.00;62537.16;5072173;28;19926;-83
2023/07/02 07:32:51;;;;;;;;;;;20.30;73.10;;;-151.14;100.00;62537.16;5071296;28;20238;-83
2023/07/02 07:35:19;;;;;;;;;;;20.30;73.10;;;-151.14;100.00;62537.16;5055317;28;20120;-83
2023/07/02 07:37:48;;;;;;;;;;;20.30;72.90;;;-151.14;100.00;62537.16;5071877;28;19927;-83
2023/07/02 07:40:16;;;;;;;;;;;20.30;73.20;;;-151.14;100.00;62537.16;5088481;28;20117;-83
2023/07/02 07:42:44;;;;;;;;;;;20.30;73.00;;;-151.14;100.00;62537.16;5071189;28;19921;-83
2023/07/02 07:45:12;;;;;;;;;;;20.30;73.00;;;-151.14;100.00;62537.16;5071810;28;19927;-83
2023/07/02 07:47:40;;;;;;;;;;;20.30;73.00;;;-151.14;100.00;62537.16;5055005;28;19931;-83
2023/07/02 07:50:10;;;;;;;;;;;20.30;72.90;;;-151.14;100.00;62537.16;5072726;28;19920;-83
2023/07/02 07:52:39;;;;;;;;;;;20.30;73.00;;;-151.14;100.00;62537.16;5072105;28;19935;-84
2023/07/02 07:55:08;;;;;;;;;;;20.30;73.20;;;-151.14;100.00;62537.16;5054998;28;20262;-83
2023/07/02 07:57:37;;;;;;;;;;;20.30;73.00;;;-151.14;100.00;62537.16;5073041;28;19920;-83
2023/07/02 08:00:07;;;;;;;;;;;20.30;73.10;;;-151.14;100.00;62537.16;5071400;28;19920;-83
2023/07/02 08:02:44;;;;;;;;;;;20.30;73.10;;;-151.14;100.00;62537.16;5071298;28;19921;-82
2023/07/02 08:05:12;;;;;;;;;;;20.30;73.10;;;-151.14;100.00;62537.16;5071327;28;19927;-82
2023/07/02 08:07:40;;;;;;;;;;;20.30;73.00;;;-151.14;100.00;62537.16;5071321;28;19927;-82
2023/07/02 08:10:10;;;;;;;;;;;20.30;73.20;;;-151.14;100.00;62537.16;5071415;28;19921;-83
2023/07/02 08:12:38;;;;;;;;;;;20.30;73.20;;;-151.14;100.00;62537.16;5072270;28;20235;-83
2023/07/02 08:15:07;;;;;;;;;;;20.30;73.20;;;-151.14;100.00;62537.16;5071168;28;20212;-83
2023/07/02 08:17:35;;;;;;;;;;;20.30;73.20;;;-151.14;100.00;62537.16;5072065;28;19927;-82
2023/07/02 08:20:04;;;;;;;;;;;20.30;73.20;;;-151.14;100.00;62537.16;5071359;28;19926;-82
2023/07/02 08:22:32;;;;;;;;;;;20.40;73.20;;;-151.14;100.00;62537.16;5071050;28;20230;-82
2023/07/02 08:25:00;;;;;;;;;;;20.30;73.10;;;-151.14;100.00;62537.16;5054495;28;20212;-82
2023/07/02 08:27:29;;;;;;;;;;;20.30;73.30;;;-151.14;100.00;62537.16;5072270;28;19921;-82
2023/07/02 08:29:57;;;;;;;;;;;20.30;73.30;;;-151.14;100.00;62537.16;5071256;28;20117;-82
2023/07/02 08:32:25;;;;;;;;;;;20.40;73.30;;;-151.14;100.00;62537.16;5070719;28;19927;-82
2023/07/02 08:34:53;;;;;;;;;;;20.30;73.20;;;-151.14;100.00;62537.16;5070912;28;19920;-82
2023/07/02 08:37:21;;;;;;;;;;;20.30;73.40;;;-151.14;100.00;62537.16;5071040;28;19920;-83
2023/07/02 08:39:49;;;;;;;;;;;20.40;73.30;;;-151.14;100.00;62537.16;5070864;28;19920;-83
2023/07/02 08:42:17;;;;;;;;;;;20.30;73.30;;;-151.14;100.00;62537.16;5071759;28;19927;-83
2023/07/02 08:44:48;;;;;;;;;;;20.30;73.40;;;-151.14;100.00;62537.16;5054129;28;19928;-82
2023/07/02 08:47:16;;;;;;;;;;;20.30;73.70;;;-151.14;100.00;62537.16;5054002;28;19926;-83
2023/07/02 08:49:44;;;;;;;;;;;20.40;73.60;;;-151.14;100.00;62537.16;5070879;28;19920;-82
2023/07/02 08:52:11;;;;;;;;;;;20.40;73.50;;;-151.14;100.00;62537.16;5053882;28;19921;-83
2023/07/02 08:54:39;;;;;;;;;;;20.40;73.60;;;-151.14;100.00;62537.16;5071907;28;19920;-83
2023/07/02 08:57:07;;;;;;;;;;;20.40;74.40;;;-151.14;100.00;62537.16;5071973;28;19926;-82
2023/07/02 08:59:36;;;;;;;;;;;20.40;74.20;;;-151.14;100.00;62537.16;5071803;28;19927;-83
2023/07/02 09:02:06;;;;;;;;;;;20.40;73.80;;;-151.14;100.00;62537.16;5053647;28;19926;-83
2023/07/02 09:04:34;;;;;;;;;;;20.40;73.90;;;-151.14;100.00;62537.16;5070386;28;20235;-83
2023/07/02 09:07:05;;;;;;;;;;;20.40;73.60;;;-151.14;100.00;62537.16;5070639;28;19920;-83
2023/07/02 09:09:33;;;;;;;;;;;20.40;73.60;;;-151.14;100.00;62537.16;5070496;28;19929;-83
2023/07/02 09:12:01;;;;;;;;;;;20.40;73.60;;;-151.14;100.00;62537.16;5071493;28;19920;-83
2023/07/02 09:14:30;;;;;;;;;;;20.40;73.70;;;-151.14;100.00;62537.16;5071548;28;20136;-83
2023/07/02 09:17:06;;;;;;;;;;;20.40;73.70;;;-151.14;100.00;62537.16;5070466;28;20209;-83
2023/07/02 09:19:34;;;;;;;;;;;20.40;74.00;;;-151.14;100.00;62537.16;5053634;28;19928;-83
2023/07/02 09:22:02;;;;;;;;;;;20.40;73.90;;;-151.14;100.00;62537.16;5071289;28;19920;-83
2023/07/02 09:24:31;;;;;;;;;;;20.40;73.70;;;-151.14;100.00;62537.16;5071489;28;19921;-83
2023/07/02 09:26:59;;;;;;;;;;;20.40;73.90;;;-151.14;100.00;62537.16;5070191;28;19921;-83
2023/07/02 09:29:28;;;;;;;;;;;20.40;73.80;;;-151.14;100.00;62537.16;5069777;28;19927;-82
2023/07/02 09:31:57;;;;;;;;;;;20.40;73.90;;;-151.14;100.00;62537.16;5071154;28;19926;-82
2023/07/02 09:34:30;;;;;;;;;;;20.40;73.80;;;-151.14;100.00;62537.16;5069996;28;19935;-82
2023/07/02 09:36:58;;;;;;;;;;;20.40;73.90;;;-151.14;100.00;62537.16;5071187;28;19921;-82
2023/07/02 09:39:29;;;;;;;;;;;20.40;73.80;;;-151.14;100.00;62537.16;5071221;28;19921;-83
2023/07/02 09:41:57;;;;;;;;;;;20.40;73.80;;;-151.14;100.00;62537.16;5069930;28;19927;-83
2023/07/02 09:44:29;;;;;;;;;;;20.40;73.80;;;-151.14;100.00;62537.16;5053355;28;19920;-83
2023/07/02 09:47:01;;;;;;;;;;;20.40;73.80;;;-151.14;100.00;62537.16;5070043;28;19920;-83
2023/07/02 09:49:32;;;;;;;;;;;20.40;73.80;;;-151.14;100.00;62537.16;5070813;28;19927;-83
2023/07/02 09:52:01;;;;;;;;;;;20.40;73.90;;;-151.14;100.00;62537.16;5070911;28;20234;-82
2023/07/02 09:54:29;;;;;;;;;;;20.40;73.70;;;-151.14;100.00;62537.16;5053254;28;19921;-82
2023/07/02 09:56:57;;;;;;;;;;;20.40;73.70;;;-151.14;100.00;62537.16;5053236;28;19927;-83
2023/07/02 09:59:25;;;;;;;;;;;20.40;73.50;;;-151.14;100.00;62537.16;5070084;28;20335;-83
2023/07/02 10:01:53;;;;;;;;;;;20.40;73.60;;;-151.14;100.00;62537.16;5069463;28;20228;-83
2023/07/02 10:04:23;;;;;;;;;;;20.40;73.60;;;-151.14;100.00;62537.16;5069836;28;19921;-82
2023/07/02 10:06:53;;;;;;;;;;;20.40;73.60;;;-151.14;100.00;62537.16;5075828;28;19934;-83
2023/07/02 10:09:21;;;;;;;;;;;20.50;73.70;;;-151.14;100.00;62537.16;5089842;28;19926;-83
2023/07/02 10:11:48;;;;;;;;;;;20.40;73.70;;;-151.14;100.00;62537.16;5089524;28;20205;-83
2023/07/02 10:14:16;;;;;;;;;;;20.50;74.10;;;-151.14;100.00;62537.16;5089787;28;19926;-83
2023/07/02 10:16:52;;;;;;;;;;;20.50;73.80;;;-151.14;100.00;62537.16;5089635;28;19921;-83
2023/07/02 10:19:19;;;;;;;;;;;20.50;73.80;;;-151.14;100.00;62537.16;5090854;28;19926;-82
2023/07/02 10:21:49;;;;;;;;;;;20.50;73.70;;;-151.14;100.00;62537.16;5090411;28;19920;-83
2023/07/02 10:24:19;;;;;;;;;;;20.50;73.70;;;-151.14;100.00;62537.16;5090971;28;20097;-82
2023/07/02 10:26:55;;;;;;;;;;;20.50;73.60;;;-151.14;100.00;62537.16;5089629;28;20140;-82
2023/07/02 10:29:23;;;;;;;;;;;20.50;73.60;;;-151.14;100.00;62537.16;5106561;28;19924;-83
2023/07/02 10:31:51;;;;;;;;;;;20.50;73.60;;;-151.14;100.00;62537.16;5090536;28;19926;-83
2023/07/02 10:34:30;;;;;;;;;;;20.50;73.50;;;-151.14;100.00;62537.16;5089696;28;19920;-83
2023/07/02 10:36:58;;;;;;;;;;;20.50;74.10;;;-151.14;100.00;62537.16;5089461;28;19920;-83
2023/07/02 10:39:29;;;;;;;;;;;20.50;73.70;;;-151.14;100.00;62537.16;5089546;28;19920;-83
2023/07/02 10:42:05;;;;;;;;;;;20.50;73.50;;;-151.14;100.00;62537.16;5090224;28;20139;-83
2023/07/02 10:44:33;;;;;;;;;;;20.60;73.40;;;-151.14;100.00;62537.16;5094087;28;19926;-83
2023/07/02 10:47:01;;;;;;;;;;;20.60;73.40;;;-151.14;100.00;62537.16;5092991;28;19927;-83
2023/07/02 10:49:32;;;;;;;;;;;20.60;73.40;;;-151.14;100.00;62537.16;5076005;28;19920;-83
2023/07/02 10:52:00;;;;;;;;;;;20.60;73.40;;;-151.14;100.00;62537.16;5093819;28;19920;-83
2023/07/02 10:54:43;;;;;;;;;;;20.60;73.50;;;-151.14;100.00;62537.16;5076017;28;19934;-83
2023/07/02 10:57:12;;;;;;;;;;;20.60;73.60;;;-151.14;100.00;62537.16;5075828;28;19927;-83
2023/07/02 10:59:39;;;;;;;;;;;20.60;74.00;;;-151.14;100.00;62537.16;5092822;28;20208;-83
2023/07/02 11:02:07;;;;;;;;;;;20.60;73.60;;;-151.14;100.00;62537.16;5092396;28;19920;-83